Terminal Aerodrome Forecast
Issued by NWS

Home | Current Version | Previous Version | Text Only | Print | Product List | Glossary On
Versions: 1 2 3 4 5 6 7 8 9 10 11 12 13 14 15 16 17 18 19 20 21 22 23 24 25 26 27
000
FTUS43 KDLH 260100 AAA
TAFHIB
TAF AMD
KHIB 260106Z 2601/2624 03008KT 6SM -RA OVC050
     FM260600 VRB03KT 1SM -DZ BR BKN050
     FM261400 VRB03KT P6SM SCT050=

USA.gov is the U.S. government's official web portal to all federal, state and local government web resources and services.